Time,TemperatureC,DewpointC,PressurehPa,WindDirection,WindDirectionDegrees,WindSpeedKMH,WindSpeedGustKMH,Humidity,HourlyPrecipMM,Conditions,Clouds,dailyrainMM,SolarRadiationWatts/m^2,UVIndex,SoftwareType,DateUTC
2021-06-19 14:04:02,17.7,16,1009.1,NW,323,9.3,14.3,90,0.0,,,0.0,0,0,n/a,2021-06-19T21:04:02Z
2021-06-19 14:09:02,17.7,16,1009.1,WNW,303,10.5,14.3,90,0.0,,,0.0,0,0,n/a,2021-06-19T21:09:02Z
2021-06-19 14:14:02,17.7,16,1009.1,NNW,327,9,14.3,90,0.0,,,0.0,0,0,n/a,2021-06-19T21:14:02Z
2021-06-19 14:19:02,17.7,15.9,1009.1,NW,308,6,13,90,0.0,,,0.0,0,0,n/a,2021-06-19T21:19:02Z
2021-06-19 14:24:06,17.6,15.9,1009.1,NNW,333,7,13,90,0.0,,,0.0,0,0,n/a,2021-06-19T21:24:06Z
2021-06-19 14:29:06,17.6,15.8,1009.1,NW,317,6.7,13,90,0.0,,,0.0,0,0,n/a,2021-06-19T21:29:06Z
2021-06-19 14:34:06,17.5,15.8,1009.1,WNW,297,8.2,14.3,90,0.0,,,0.0,0,0,n/a,2021-06-19T21:34:06Z
2021-06-19 14:39:10,17.4,15.8,1009.1,WNW,296,8,13,90.2,0.0,,,0.0,0,0,n/a,2021-06-19T21:39:10Z
2021-06-19 14:44:14,17.4,15.9,1009.1,NW,304,9.9,14.3,91,0.0,,,0.0,0,0,n/a,2021-06-19T21:44:14Z
2021-06-19 14:49:14,17.4,15.9,1009.1,NW,321,8,13,90.8,0.0,,,0.0,0,0,n/a,2021-06-19T21:49:14Z
2021-06-19 14:54:14,17.3,15.8,1009.1,NW,316,8.6,14.3,91,0.0,,,0.0,0,0,n/a,2021-06-19T21:54:14Z
2021-06-19 14:59:14,17.3,15.8,1009.1,NW,312,8.2,14.3,91,0.0,,,0.0,0,0,n/a,2021-06-19T21:59:14Z
2021-06-19 15:04:18,17.3,15.8,1009.1,WNW,303,8.2,14.3,91,0.0,,,0.0,0,0,n/a,2021-06-19T22:04:18Z
2021-06-19 15:09:18,17.2,15.7,1009.1,WNW,299,4.2,11.1,91,0.0,,,0.0,0,0,n/a,2021-06-19T22:09:18Z
2021-06-19 15:14:22,17.2,15.7,1009.1,NW,304,9.6,14.3,91,0.0,,,0.0,0,0,n/a,2021-06-19T22:14:22Z
2021-06-19 15:19:22,17.2,15.7,1009.1,NW,319,8.3,16.3,91,0.0,,,0.0,0,0,n/a,2021-06-19T22:19:22Z
2021-06-19 15:24:26,17.1,15.6,1009.1,NW,315,9.6,14.3,91,0.0,,,0.0,0,0,n/a,2021-06-19T22:24:26Z
2021-06-19 15:29:26,17,15.5,1009.1,NW,320,9.6,17.7,91,0.0,,,0.0,0,0,n/a,2021-06-19T22:29:26Z
2021-06-19 15:34:34,17,15.5,1009.1,WNW,303,8.3,16.3,91,0.0,,,0.0,0,0,n/a,2021-06-19T22:34:34Z
2021-06-19 15:39:34,16.9,15.4,1009.1,WNW,290,8.3,14.3,91,0.0,,,0.0,0,0,n/a,2021-06-19T22:39:34Z
2021-06-19 15:44:34,16.9,15.4,1009.1,NW,312,6.6,14.3,91,0.0,,,0.0,0,0,n/a,2021-06-19T22:44:34Z
2021-06-19 15:49:34,16.9,15.4,1009.1,WNW,303,8,14.3,91,0.0,,,0.0,0,0,n/a,2021-06-19T22:49:34Z
2021-06-19 15:54:34,16.9,15.4,1009.1,WNW,291,9.9,16.3,91,0.0,,,0.0,0,0,n/a,2021-06-19T22:54:34Z
2021-06-19 15:59:34,16.9,15.4,1009.1,NW,315,11,16.3,91,0.0,,,0.0,0,0,n/a,2021-06-19T22:59:34Z
2021-06-19 16:04:34,16.8,15.3,1009.1,NW,315,10.7,16.3,91,0.0,,,0.0,0,0,n/a,2021-06-19T23:04:34Z
2021-06-19 16:09:34,16.8,15.3,1009.1,NNW,327,11.6,16.3,91,0.0,,,0.0,0,0,n/a,2021-06-19T23:09:34Z
2021-06-19 16:14:34,16.8,15.3,1008.8,NW,308,14.5,19.5,91,0.0,,,0.0,0,0,n/a,2021-06-19T23:14:34Z
2021-06-19 16:19:34,16.8,15.3,1008.8,NNW,327,14.1,19.5,91,0.0,,,0.0,0,0,n/a,2021-06-19T23:19:34Z
2021-06-19 16:24:34,16.8,15.3,1008.8,NW,314,16.4,20.9,91,0.0,,,0.0,0,0,n/a,2021-06-19T23:24:34Z
2021-06-19 16:29:34,16.8,15.3,1008.5,NW,319,18.8,24.1,91,0.0,,,0.0,0,0,n/a,2021-06-19T23:29:34Z
2021-06-19 16:34:38,16.8,15.3,1008.5,NW,311,13.9,20.9,91.2,0.0,,,0.0,0,0,n/a,2021-06-19T23:34:38Z
2021-06-19 16:39:38,16.8,15.5,1008.5,NNW,338,11.2,20.9,92,0.0,,,0.0,0,0,n/a,2021-06-19T23:39:38Z
2021-06-19 16:44:42,16.8,15.5,1008.5,NNW,334,11.9,19.5,92,0.0,,,0.0,0,0,n/a,2021-06-19T23:44:42Z
2021-06-19 16:49:42,16.8,15.3,1008.8,NW,308,5,13,91,0.0,,,0.0,0,0,n/a,2021-06-19T23:49:42Z
2021-06-19 16:54:42,16.7,15.3,1008.8,NW,325,5.1,11.1,91.2,0.0,,,0.0,0,0,n/a,2021-06-19T23:54:42Z
2021-06-19 16:59:42,16.7,15.4,1008.8,NW,309,7.4,13,92,0.0,,,0.0,0,0,n/a,2021-06-19T23:59:42Z
2021-06-19 17:04:42,16.7,15.4,1008.5,NW,320,9.6,14.3,92,0.0,,,0.0,0,0,n/a,2021-06-20T00:04:42Z
2021-06-19 17:09:42,16.7,15.4,1008.5,NNW,330,11.8,17.7,92,0.0,,,0.0,0,0,n/a,2021-06-20T00:09:42Z
2021-06-19 17:14:42,16.6,15.3,1008.5,NNW,337,8.3,17.7,92,0.0,,,0.0,0,0,n/a,2021-06-20T00:14:42Z
2021-06-19 17:19:50,16.6,15.3,1008.5,NW,323,2.8,9.7,92,0.0,,,0.0,0,0,n/a,2021-06-20T00:19:50Z
2021-06-19 17:24:58,16.6,15.3,1008.5,WNW,286,2.2,9.7,92,0.0,,,0.0,0,0,n/a,2021-06-20T00:24:58Z
2021-06-19 17:29:58,16.5,15.2,1008.5,NW,313,5.4,7.9,92,0.0,,,0.0,0,0,n/a,2021-06-20T00:29:58Z
2021-06-19 17:34:02,16.4,15.1,1008.5,NW,319,8.1,16.3,92,0.0,,,0.0,0,0,n/a,2021-06-20T00:34:02Z
2021-06-19 17:39:02,16.4,15.1,1008.5,NW,306,4.1,16.3,92,0.0,,,0.0,0,0,n/a,2021-06-20T00:39:02Z
2021-06-19 17:44:02,16.4,15.1,1008.5,West,268,4.8,13,92,0.0,,,0.0,0,0,n/a,2021-06-20T00:44:02Z
2021-06-19 17:49:10,16.3,15,1008.5,West,280,6.4,9.7,92,0.0,,,0.0,0,0,n/a,2021-06-20T00:49:10Z
2021-06-19 17:54:14,16.3,15,1008.5,WNW,282,8,13,92,0.0,,,0.0,0,0,n/a,2021-06-20T00:54:14Z
2021-06-19 17:59:14,16.3,15,1008.5,WNW,293,8.2,14.3,92,0.0,,,0.0,0,0,n/a,2021-06-20T00:59:14Z
2021-06-19 18:04:14,16.2,14.9,1008.5,West,274,5.7,14.3,92,0.0,,,0.0,0,0,n/a,2021-06-20T01:04:14Z
2021-06-19 18:09:14,16.2,14.9,1008.5,WNW,282,6.8,13,92,0.0,,,0.0,0,0,n/a,2021-06-20T01:09:14Z
2021-06-19 18:14:18,16.2,14.8,1008.5,West,274,7.1,13,92,0.0,,,0.0,0,0,n/a,2021-06-20T01:14:18Z
2021-06-19 18:19:22,16.1,14.8,1008.5,WNW,288,6.4,13,92,0.0,,,0.0,0,0,n/a,2021-06-20T01:19:22Z
2021-06-19 18:24:22,16.1,14.8,1008.5,WNW,287,8.6,16.3,92,0.0,,,0.0,0,0,n/a,2021-06-20T01:24:22Z
2021-06-19 18:29:22,16,14.7,1008.5,WNW,303,7,14.3,92,0.0,,,0.0,0,0,n/a,2021-06-20T01:29:22Z
2021-06-19 18:34:22,16.1,14.8,1008.5,WNW,285,10.7,14.3,92,0.0,,,0.0,0,0,n/a,2021-06-20T01:34:22Z
2021-06-19 18:39:22,16.2,14.8,1008.5,WNW,300,11.5,14.3,92,0.0,,,0.0,0,0,n/a,2021-06-20T01:39:22Z
2021-06-19 18:44:22,16.2,14.9,1008.5,WNW,294,7,14.3,92,0.0,,,0.0,0,0,n/a,2021-06-20T01:44:22Z
2021-06-19 18:49:22,16.3,15,1008.5,WNW,292,10.5,14.3,92,0.0,,,0.0,0,0,n/a,2021-06-20T01:49:22Z
2021-06-19 18:54:30,16.3,15,1008.5,NW,305,5.4,11.1,92,0.0,,,0.0,0,0,n/a,2021-06-20T01:54:30Z
2021-06-19 18:59:30,16.3,15,1008.5,WNW,301,6,14.3,92,0.0,,,0.0,0,0,n/a,2021-06-20T01:59:30Z
2021-06-19 19:04:30,16.3,15,1008.5,WNW,294,6,11.1,92,0.0,,,0.0,0,0,n/a,2021-06-20T02:04:30Z
2021-06-19 19:09:34,16.3,15,1008.5,WNW,283,4.1,11.1,92,0.0,,,0.0,0,0,n/a,2021-06-20T02:09:34Z
2021-06-19 19:14:42,16.3,15,1008.5,West,273,0.9,7.9,92,0.0,,,0.0,0,0,n/a,2021-06-20T02:14:42Z
2021-06-19 19:19:46,16.3,15.1,1008.5,West,266,0.3,6.4,92.4,0.0,,,0.0,0,0,n/a,2021-06-20T02:19:46Z
2021-06-19 19:24:54,16.3,15.2,1008.5,NW,304,1.8,4.7,93,0.0,,,0.0,0,0,n/a,2021-06-20T02:24:54Z
2021-06-19 19:29:58,16.2,15.1,1008.5,WNW,296,0.6,4.7,93,0.0,,,0.0,0,0,n/a,2021-06-20T02:29:58Z
2021-06-19 19:34:10,16.2,15.1,1008.5,West,264,0.4,4.7,93,0.0,,,0.0,0,0,n/a,2021-06-20T02:34:10Z
2021-06-19 19:39:10,16.1,15,1008.5,West,263,0,1.4,93,0.0,,,0.0,5,0,n/a,2021-06-20T02:39:10Z
2021-06-19 19:44:18,16.1,15,1008.5,SSW,208,0,0,93,0.0,,,0.0,9,0,n/a,2021-06-20T02:44:18Z
2021-06-19 19:49:26,15.9,14.8,1008.5,SSW,208,0,0,93,0.0,,,0.0,11,0,n/a,2021-06-20T02:49:26Z
2021-06-19 19:54:42,15.8,14.7,1008.5,West,265,0.3,3.2,93,0.0,,,0.0,14,0,n/a,2021-06-20T02:54:42Z